Japan Airlines Virtual Airport Information Service

Matsuyama Airport

ICAO: RJOM Country: Japan
Latitude: 33.8272 Longitude: 132.7
Latest Arrival : JAL439 (RJTT-RJOM) Latest Departure : APJ310 (RJOM-RJBB)


WX CaptureLIVE
Data provided by noaa.gov | Fetched at 12:55:13

METAR : RJOM 061200Z 02003KT 9999 FEW025 SCT050 BKN070 28/23 Q1011

TAF : RJOM 061109Z 0612/0718 36004KT 9999 FEW025 SCT050 BECMG 0612/0614 12007KT BECMG 0622/0700 27007KT BECMG 0709/0712 12004KT


Runway Data for RJOM
Data provided by openaviationdata.com

Runway ID Mag Var Hdg Length Elevation Surface ILS Freq ILS Id ILS Slope
14 -6 137° 8204 ft 13 ft Asphalt 109.3 IMP 3
32 -6 317° 8204 ft 13 ft Asphalt -- -- --

Matsuyama Airport, Japan
Use only for reference purposes



Not for navigational purposes.